Kinston Regional Jetport At Stallings Field
KISO : now visible

Airfield :











YOU CAN JOIN US ON...

 
LOGIN :

Register | Disclaimer

   EN    FR    IT 

 









Legend :    VFR   Marginal VFR   IFR   Intensive IFR   Very Intensive IFR
Visi :
Ceiling :
>= 8 km
>= 3000ft
5 to 8 km
1000 to 3000 ft
1500m to 5 km
500 to 1000 ft
800 to 1500m
200 to 500 ft
< 800m
< 200 ft
Symbols :   Thunderstorms  Fog  Heavy snow  Heavy precipitations  Wind > 20 kt






- Airport Elevation : 93 ft


KISO - Kinston Regional Jetport At Stallings Field

CURRENT METAR :
  • 220535Z AUTO 36010KT 10SM CLR M01/M08 A3038 RMK AO2 T10131085

EXPIRED METARs :
  • 220515Z AUTO 01009KT 10SM CLR M01/M09 A3038 RMK AO2 T10121086
  • 220455Z AUTO 01008KT 10SM CLR M01/M09 A3039 RMK AO2 T10141087
  • 220435Z AUTO 01009G14KT 10SM CLR M01/M09 A3039 RMK AO2 T10131087
  • 220415Z AUTO 02008KT 10SM CLR M01/M09 A3041 RMK AO2 T10121090
  • 220355Z AUTO 01010KT 10SM CLR M01/M09 A3040 RMK AO2 T10081091
  • 220335Z AUTO 03007KT 10SM CLR M01/M09 A3041 RMK AO2 T10081093
  • 220315Z AUTO 02007KT 10SM CLR 00/M09 A3042 RMK AO2 T10051095
  • 220255Z AUTO 36011KT 10SM CLR M01/M09 A3040 RMK AO2 T10071093

TAF KISO
Valid from the 22 at 00:00 until the 23 at 00:00 UTC


212324Z 2200/2224 02010KT P6SM SKC AMD LTD TO CLD VIS AND WIND



MET'MAP, your aeronautical weather chart ! - Copyright ORBIFLY December 2007 - Disclaimer

ORBIFLY MET'MAP TEAM :

Programming & Development : Alexandra Zaïnal
Concept & original design : Baudouin d'Aumeries
Assistance for programming : Marc-Olivier Méhu
Technical & hardware support : Manuel Goepfert

Contact : metmap@orbifly.com




SOURCES & CREDITS :

   NOAA       Earth
Advisory